sensor_id;sensor_type;location;lat;lon;timestamp;P1;durP1;ratioP1;P2;durP2;ratioP2
60076;SDS011;45950;45.208;20.374;2023-03-01T09:10:10;45.42;;;28.60;;
60076;SDS011;45950;45.208;20.374;2023-03-01T09:12:37;54.97;;;34.20;;
60076;SDS011;45950;45.208;20.374;2023-03-01T09:31:00;50.40;;;31.33;;
60076;SDS011;45950;45.208;20.374;2023-03-01T09:33:35;41.72;;;26.65;;
60076;SDS011;45950;45.208;20.374;2023-03-01T09:36:03;45.30;;;29.77;;
60076;SDS011;45950;45.208;20.374;2023-03-01T09:38:30;46.22;;;29.63;;
60076;SDS011;45950;45.208;20.374;2023-03-01T09:40:57;48.83;;;31.55;;
60076;SDS011;45950;45.208;20.374;2023-03-01T09:43:26;45.88;;;28.77;;
60076;SDS011;45950;45.208;20.374;2023-03-01T09:45:54;48.92;;;33.22;;
60076;SDS011;45950;45.208;20.374;2023-03-01T09:48:24;50.05;;;28.27;;
60076;SDS011;45950;45.208;20.374;2023-03-01T09:53:49;46.35;;;29.52;;
60076;SDS011;45950;45.208;20.374;2023-03-01T09:56:19;50.80;;;29.75;;
60076;SDS011;45950;45.208;20.374;2023-03-01T09:58:48;49.08;;;29.38;;
60076;SDS011;45950;45.208;20.374;2023-03-01T10:01:27;43.28;;;27.58;;
60076;SDS011;45950;45.208;20.374;2023-03-01T10:04:03;48.25;;;28.52;;
60076;SDS011;45950;45.208;20.374;2023-03-01T10:06:31;41.42;;;25.08;;
60076;SDS011;45950;45.208;20.374;2023-03-01T10:08:58;40.15;;;25.25;;
60076;SDS011;45950;45.208;20.374;2023-03-01T10:11:28;42.60;;;27.15;;
60076;SDS011;45950;45.208;20.374;2023-03-01T10:13:56;38.42;;;25.55;;
60076;SDS011;45950;45.208;20.374;2023-03-01T10:16:26;41.88;;;25.80;;
60076;SDS011;45950;45.208;20.374;2023-03-01T10:18:55;38.50;;;26.15;;
60076;SDS011;45950;45.208;20.374;2023-03-01T10:21:27;45.83;;;27.90;;
60076;SDS011;45950;45.208;20.374;2023-03-01T10:23:54;37.67;;;23.08;;
60076;SDS011;45950;45.208;20.374;2023-03-01T10:26:25;38.55;;;23.88;;
60076;SDS011;45950;45.208;20.374;2023-03-01T10:28:58;38.88;;;25.27;;
60076;SDS011;45950;45.208;20.374;2023-03-01T10:31:30;38.42;;;23.85;;
60076;SDS011;45950;45.208;20.374;2023-03-01T10:34:02;46.40;;;28.48;;
60076;SDS011;45950;45.208;20.374;2023-03-01T10:36:30;37.20;;;23.05;;
60076;SDS011;45950;45.208;20.374;2023-03-01T10:38:58;38.60;;;25.23;;
60076;SDS011;45950;45.208;20.374;2023-03-01T10:41:25;35.15;;;22.42;;
60076;SDS011;45950;45.208;20.374;2023-03-01T10:43:53;35.00;;;22.67;;
60076;SDS011;45950;45.208;20.374;2023-03-01T10:46:24;34.40;;;21.08;;
60076;SDS011;45950;45.208;20.374;2023-03-01T10:51:34;28.42;;;20.02;;
60076;SDS011;45950;45.208;20.374;2023-03-01T10:54:00;34.20;;;22.52;;
60076;SDS011;45950;45.208;20.374;2023-03-01T10:56:27;28.70;;;19.55;;
60076;SDS011;45950;45.208;20.374;2023-03-01T10:58:59;31.70;;;21.33;;
60076;SDS011;45950;45.208;20.374;2023-03-01T11:01:26;33.47;;;22.52;;
60076;SDS011;45950;45.208;20.374;2023-03-01T11:04:08;32.53;;;21.65;;
60076;SDS011;45950;45.208;20.374;2023-03-01T11:06:37;31.17;;;20.25;;
60076;SDS011;45950;45.208;20.374;2023-03-01T11:09:13;29.05;;;19.50;;
60076;SDS011;45950;45.208;20.374;2023-03-01T11:11:43;28.42;;;18.73;;
60076;SDS011;45950;45.208;20.374;2023-03-01T11:14:13;30.40;;;19.38;;
60076;SDS011;45950;45.208;20.374;2023-03-01T11:16:42;33.92;;;20.90;;
60076;SDS011;45950;45.208;20.374;2023-03-01T11:19:17;32.35;;;20.25;;
60076;SDS011;45950;45.208;20.374;2023-03-01T11:21:50;33.97;;;22.38;;
60076;SDS011;45950;45.208;20.374;2023-03-01T11:24:18;30.02;;;19.88;;
60076;SDS011;45950;45.208;20.374;2023-03-01T11:26:46;28.40;;;19.42;;
60076;SDS011;45950;45.208;20.374;2023-03-01T11:29:18;27.10;;;18.48;;
60076;SDS011;45950;45.208;20.374;2023-03-01T11:31:47;29.48;;;18.90;;
60076;SDS011;45950;45.208;20.374;2023-03-01T11:34:16;28.55;;;18.58;;
60076;SDS011;45950;45.208;20.374;2023-03-01T11:36:48;27.85;;;18.67;;
60076;SDS011;45950;45.208;20.374;2023-03-01T11:39:19;29.02;;;18.30;;
60076;SDS011;45950;45.208;20.374;2023-03-01T11:41:48;29.25;;;18.83;;
60076;SDS011;45950;45.208;20.374;2023-03-01T11:44:18;27.25;;;17.55;;
60076;SDS011;45950;45.208;20.374;2023-03-01T11:47:03;28.70;;;18.10;;
60076;SDS011;45950;45.208;20.374;2023-03-01T11:49:43;26.17;;;17.85;;
60076;SDS011;45950;45.208;20.374;2023-03-01T11:52:15;27.00;;;17.67;;
60076;SDS011;45950;45.208;20.374;2023-03-01T11:54:47;30.02;;;18.60;;
60076;SDS011;45950;45.208;20.374;2023-03-01T11:57:19;25.00;;;16.52;;
60076;SDS011;45950;45.208;20.374;2023-03-01T11:59:57;28.33;;;17.30;;
60076;SDS011;45950;45.208;20.374;2023-03-01T12:05:17;34.60;;;20.00;;
60076;SDS011;45950;45.208;20.374;2023-03-01T12:07:49;26.27;;;16.95;;
60076;SDS011;45950;45.208;20.374;2023-03-01T12:10:21;25.38;;;16.67;;
60076;SDS011;45950;45.208;20.374;2023-03-01T12:12:54;23.65;;;16.10;;
60076;SDS011;45950;45.208;20.374;2023-03-01T12:18:16;24.02;;;15.93;;
60076;SDS011;45950;45.208;20.374;2023-03-01T12:20:49;26.67;;;17.10;;
60076;SDS011;45950;45.208;20.374;2023-03-01T12:23:24;25.88;;;16.52;;
60076;SDS011;45950;45.208;20.374;2023-03-01T12:25:54;27.88;;;17.95;;
60076;SDS011;45950;45.208;20.374;2023-03-01T12:31:08;31.88;;;18.15;;
60076;SDS011;45950;45.208;20.374;2023-03-01T12:33:39;29.70;;;20.75;;
60076;SDS011;45950;45.208;20.374;2023-03-01T12:38:39;27.98;;;18.15;;
60076;SDS011;45950;45.208;20.374;2023-03-01T12:44:11;27.33;;;17.83;;
60076;SDS011;45950;45.208;20.374;2023-03-01T12:46:46;24.52;;;17.40;;
60076;SDS011;45950;45.208;20.374;2023-03-01T12:49:18;25.50;;;17.90;;
60076;SDS011;45950;45.208;20.374;2023-03-01T12:51:49;27.13;;;18.05;;
60076;SDS011;45950;45.208;20.374;2023-03-01T12:54:19;27.67;;;18.92;;
60076;SDS011;45950;45.208;20.374;2023-03-01T12:56:47;26.60;;;17.40;;
60076;SDS011;45950;45.208;20.374;2023-03-01T12:59:19;27.95;;;18.42;;
60076;SDS011;45950;45.208;20.374;2023-03-01T13:01:49;25.10;;;16.00;;
60076;SDS011;45950;45.208;20.374;2023-03-01T13:04:22;27.00;;;18.15;;
60076;SDS011;45950;45.208;20.374;2023-03-01T13:07:01;25.80;;;17.65;;
60076;SDS011;45950;45.208;20.374;2023-03-01T13:09:30;23.30;;;16.35;;
60076;SDS011;45950;45.208;20.374;2023-03-01T13:12:01;24.30;;;16.25;;
60076;SDS011;45950;45.208;20.374;2023-03-01T13:14:39;25.30;;;17.23;;
60076;SDS011;45950;45.208;20.374;2023-03-01T13:19:57;25.80;;;16.98;;
60076;SDS011;45950;45.208;20.374;2023-03-01T13:25:26;26.95;;;18.67;;
60076;SDS011;45950;45.208;20.374;2023-03-01T13:27:53;25.92;;;18.10;;
60076;SDS011;45950;45.208;20.374;2023-03-01T13:30:42;25.05;;;15.88;;
60076;SDS011;45950;45.208;20.374;2023-03-01T13:36:11;29.45;;;18.98;;
60076;SDS011;45950;45.208;20.374;2023-03-01T13:38:59;27.00;;;18.00;;
60076;SDS011;45950;45.208;20.374;2023-03-01T13:44:11;32.08;;;21.15;;
60076;SDS011;45950;45.208;20.374;2023-03-01T13:46:39;34.08;;;20.60;;
60076;SDS011;45950;45.208;20.374;2023-03-01T13:49:09;34.63;;;21.48;;
60076;SDS011;45950;45.208;20.374;2023-03-01T13:51:37;30.60;;;19.42;;
60076;SDS011;45950;45.208;20.374;2023-03-01T13:54:04;25.55;;;16.65;;
60076;SDS011;45950;45.208;20.374;2023-03-01T13:56:33;31.08;;;21.35;;
60076;SDS011;45950;45.208;20.374;2023-03-01T13:59:02;27.55;;;17.98;;
60076;SDS011;45950;45.208;20.374;2023-03-01T14:01:31;27.00;;;18.75;;
60076;SDS011;45950;45.208;20.374;2023-03-01T14:03:59;24.00;;;16.83;;
60076;SDS011;45950;45.208;20.374;2023-03-01T14:06:26;23.30;;;16.48;;
60076;SDS011;45950;45.208;20.374;2023-03-01T14:09:00;25.00;;;18.13;;
60076;SDS011;45950;45.208;20.374;2023-03-01T14:11:49;27.30;;;17.65;;
60076;SDS011;45950;45.208;20.374;2023-03-01T14:14:23;22.27;;;16.50;;
60076;SDS011;45950;45.208;20.374;2023-03-01T14:19:47;24.20;;;15.57;;
60076;SDS011;45950;45.208;20.374;2023-03-01T14:22:16;23.63;;;16.73;;
60076;SDS011;45950;45.208;20.374;2023-03-01T14:24:46;25.00;;;16.50;;
60076;SDS011;45950;45.208;20.374;2023-03-01T14:27:14;23.30;;;15.55;;
60076;SDS011;45950;45.208;20.374;2023-03-01T14:32:30;24.70;;;15.98;;
60076;SDS011;45950;45.208;20.374;2023-03-01T14:34:59;24.45;;;15.75;;
60076;SDS011;45950;45.208;20.374;2023-03-01T14:40:20;20.10;;;14.02;;
60076;SDS011;45950;45.208;20.374;2023-03-01T14:42:47;21.02;;;14.93;;
60076;SDS011;45950;45.208;20.374;2023-03-01T14:45:14;21.08;;;15.90;;
60076;SDS011;45950;45.208;20.374;2023-03-01T14:47:40;21.80;;;14.98;;
60076;SDS011;45950;45.208;20.374;2023-03-01T14:50:10;21.02;;;13.73;;
60076;SDS011;45950;45.208;20.374;2023-03-01T14:52:42;20.67;;;14.05;;
60076;SDS011;45950;45.208;20.374;2023-03-01T14:55:13;23.85;;;15.07;;
60076;SDS011;45950;45.208;20.374;2023-03-01T14:57:42;24.67;;;17.25;;
60076;SDS011;45950;45.208;20.374;2023-03-01T15:00:10;26.75;;;18.80;;
60076;SDS011;45950;45.208;20.374;2023-03-01T15:02:42;25.25;;;17.23;;
60076;SDS011;45950;45.208;20.374;2023-03-01T15:05:18;23.60;;;16.00;;
60076;SDS011;45950;45.208;20.374;2023-03-01T15:07:45;27.02;;;18.30;;
60076;SDS011;45950;45.208;20.374;2023-03-01T15:10:16;25.02;;;16.75;;
60076;SDS011;45950;45.208;20.374;2023-03-01T15:12:43;19.85;;;13.32;;
60076;SDS011;45950;45.208;20.374;2023-03-01T15:15:29;22.30;;;14.50;;
60076;SDS011;45950;45.208;20.374;2023-03-01T15:17:57;19.08;;;13.02;;
60076;SDS011;45950;45.208;20.374;2023-03-01T15:20:26;20.20;;;13.55;;
60076;SDS011;45950;45.208;20.374;2023-03-01T15:22:54;23.83;;;16.63;;
60076;SDS011;45950;45.208;20.374;2023-03-01T15:25:33;28.35;;;18.00;;
60076;SDS011;45950;45.208;20.374;2023-03-01T15:28:00;27.20;;;19.33;;
60076;SDS011;45950;45.208;20.374;2023-03-01T15:30:27;26.65;;;19.00;;
60076;SDS011;45950;45.208;20.374;2023-03-01T15:35:47;29.98;;;19.58;;
60076;SDS011;45950;45.208;20.374;2023-03-01T15:38:24;26.85;;;17.48;;
60076;SDS011;45950;45.208;20.374;2023-03-01T15:43:43;26.75;;;18.40;;
60076;SDS011;45950;45.208;20.374;2023-03-01T15:46:17;25.60;;;16.77;;
60076;SDS011;45950;45.208;20.374;2023-03-01T15:48:44;29.17;;;18.25;;
60076;SDS011;45950;45.208;20.374;2023-03-01T15:51:13;27.20;;;18.30;;
60076;SDS011;45950;45.208;20.374;2023-03-01T15:53:40;24.98;;;16.88;;
60076;SDS011;45950;45.208;20.374;2023-03-01T15:56:06;26.77;;;17.77;;
60076;SDS011;45950;45.208;20.374;2023-03-01T15:58:33;29.60;;;19.17;;
60076;SDS011;45950;45.208;20.374;2023-03-01T16:00:59;27.38;;;17.90;;
60076;SDS011;45950;45.208;20.374;2023-03-01T16:03:26;29.13;;;17.42;;
60076;SDS011;45950;45.208;20.374;2023-03-01T16:05:53;24.33;;;15.20;;
60076;SDS011;45950;45.208;20.374;2023-03-01T16:08:21;25.88;;;17.25;;
60076;SDS011;45950;45.208;20.374;2023-03-01T16:13:53;30.48;;;17.92;;
60076;SDS011;45950;45.208;20.374;2023-03-01T16:16:20;32.20;;;18.45;;
60076;SDS011;45950;45.208;20.374;2023-03-01T16:18:47;23.95;;;14.57;;
60076;SDS011;45950;45.208;20.374;2023-03-01T16:21:15;29.85;;;16.15;;
60076;SDS011;45950;45.208;20.374;2023-03-01T16:23:44;27.02;;;17.30;;
60076;SDS011;45950;45.208;20.374;2023-03-01T16:26:11;27.75;;;16.63;;
60076;SDS011;45950;45.208;20.374;2023-03-01T16:28:54;30.67;;;17.60;;
60076;SDS011;45950;45.208;20.374;2023-03-01T16:31:21;26.50;;;15.10;;
60076;SDS011;45950;45.208;20.374;2023-03-01T16:33:48;25.75;;;15.93;;
60076;SDS011;45950;45.208;20.374;2023-03-01T16:36:17;32.75;;;17.73;;
60076;SDS011;45950;45.208;20.374;2023-03-01T16:38:45;30.80;;;18.15;;
60076;SDS011;45950;45.208;20.374;2023-03-01T16:41:15;31.55;;;20.35;;
60076;SDS011;45950;45.208;20.374;2023-03-01T16:43:43;28.60;;;17.95;;
60076;SDS011;45950;45.208;20.374;2023-03-01T16:46:13;30.40;;;18.38;;
60076;SDS011;45950;45.208;20.374;2023-03-01T16:48:40;34.08;;;21.38;;
60076;SDS011;45950;45.208;20.374;2023-03-01T16:51:07;34.97;;;21.45;;
60076;SDS011;45950;45.208;20.374;2023-03-01T16:53:34;33.90;;;18.85;;
60076;SDS011;45950;45.208;20.374;2023-03-01T16:56:03;26.90;;;16.83;;
60076;SDS011;45950;45.208;20.374;2023-03-01T16:58:30;26.48;;;16.95;;
60076;SDS011;45950;45.208;20.374;2023-03-01T17:00:56;28.48;;;18.02;;
60076;SDS011;45950;45.208;20.374;2023-03-01T17:03:23;28.10;;;16.23;;
60076;SDS011;45950;45.208;20.374;2023-03-01T17:05:51;30.67;;;18.08;;
60076;SDS011;45950;45.208;20.374;2023-03-01T17:08:17;46.03;;;24.35;;
60076;SDS011;45950;45.208;20.374;2023-03-01T17:10:44;45.72;;;27.33;;
60076;SDS011;45950;45.208;20.374;2023-03-01T17:13:12;57.05;;;34.83;;
60076;SDS011;45950;45.208;20.374;2023-03-01T17:15:38;45.00;;;26.27;;
60076;SDS011;45950;45.208;20.374;2023-03-01T17:18:06;63.03;;;33.55;;
60076;SDS011;45950;45.208;20.374;2023-03-01T17:20:33;66.80;;;34.03;;
60076;SDS011;45950;45.208;20.374;2023-03-01T17:26:02;42.95;;;27.13;;
60076;SDS011;45950;45.208;20.374;2023-03-01T17:28:31;39.28;;;23.17;;
60076;SDS011;45950;45.208;20.374;2023-03-01T17:30:58;30.80;;;19.15;;
60076;SDS011;45950;45.208;20.374;2023-03-01T17:33:25;32.72;;;20.08;;
60076;SDS011;45950;45.208;20.374;2023-03-01T17:35:52;29.15;;;18.60;;
60076;SDS011;45950;45.208;20.374;2023-03-01T17:38:18;42.28;;;23.13;;
60076;SDS011;45950;45.208;20.374;2023-03-01T17:40:45;35.25;;;18.92;;
60076;SDS011;45950;45.208;20.374;2023-03-01T17:43:12;31.42;;;18.65;;
60076;SDS011;45950;45.208;20.374;2023-03-01T17:45:40;31.27;;;16.35;;
60076;SDS011;45950;45.208;20.374;2023-03-01T17:48:11;32.03;;;16.63;;
60076;SDS011;45950;45.208;20.374;2023-03-01T17:50:38;26.13;;;16.70;;
60076;SDS011;45950;45.208;20.374;2023-03-01T17:53:06;28.45;;;15.73;;
60076;SDS011;45950;45.208;20.374;2023-03-01T17:55:34;28.02;;;16.23;;
60076;SDS011;45950;45.208;20.374;2023-03-01T18:01:10;83.75;;;47.88;;
60076;SDS011;45950;45.208;20.374;2023-03-01T18:03:38;147.18;;;76.00;;
60076;SDS011;45950;45.208;20.374;2023-03-01T18:06:09;147.60;;;70.80;;
60076;SDS011;45950;45.208;20.374;2023-03-01T18:08:36;50.13;;;28.48;;
60076;SDS011;45950;45.208;20.374;2023-03-01T18:11:03;36.25;;;21.63;;
60076;SDS011;45950;45.208;20.374;2023-03-01T18:13:30;33.72;;;21.80;;
60076;SDS011;45950;45.208;20.374;2023-03-01T18:15:57;64.90;;;34.00;;
60076;SDS011;45950;45.208;20.374;2023-03-01T18:18:27;41.22;;;23.52;;
60076;SDS011;45950;45.208;20.374;2023-03-01T18:20:54;84.20;;;46.83;;
60076;SDS011;45950;45.208;20.374;2023-03-01T18:23:21;64.30;;;33.25;;
60076;SDS011;45950;45.208;20.374;2023-03-01T18:25:51;94.50;;;47.55;;
60076;SDS011;45950;45.208;20.374;2023-03-01T18:31:02;54.22;;;29.65;;
60076;SDS011;45950;45.208;20.374;2023-03-01T18:33:39;51.90;;;31.10;;
60076;SDS011;45950;45.208;20.374;2023-03-01T18:36:14;51.55;;;27.65;;
60076;SDS011;45950;45.208;20.374;2023-03-01T18:38:44;45.47;;;26.35;;
60076;SDS011;45950;45.208;20.374;2023-03-01T18:43:53;29.45;;;17.95;;
60076;SDS011;45950;45.208;20.374;2023-03-01T18:46:21;38.28;;;20.92;;
60076;SDS011;45950;45.208;20.374;2023-03-01T18:48:51;30.73;;;18.02;;
60076;SDS011;45950;45.208;20.374;2023-03-01T18:51:28;30.88;;;17.63;;
60076;SDS011;45950;45.208;20.374;2023-03-01T18:53:55;26.27;;;15.57;;
60076;SDS011;45950;45.208;20.374;2023-03-01T18:56:23;25.42;;;15.80;;
60076;SDS011;45950;45.208;20.374;2023-03-01T18:59:04;24.40;;;14.57;;
60076;SDS011;45950;45.208;20.374;2023-03-01T19:01:32;27.50;;;15.48;;
60076;SDS011;45950;45.208;20.374;2023-03-01T19:07:24;33.63;;;19.92;;
60076;SDS011;45950;45.208;20.374;2023-03-01T19:09:51;33.53;;;20.50;;
60076;SDS011;45950;45.208;20.374;2023-03-01T19:12:20;42.88;;;20.98;;
60076;SDS011;45950;45.208;20.374;2023-03-01T19:14:52;31.27;;;20.00;;
60076;SDS011;45950;45.208;20.374;2023-03-01T19:17:20;31.20;;;19.65;;
60076;SDS011;45950;45.208;20.374;2023-03-01T19:20:01;30.92;;;18.00;;
60076;SDS011;45950;45.208;20.374;2023-03-01T19:22:29;35.30;;;20.40;;
60076;SDS011;45950;45.208;20.374;2023-03-01T19:24:56;35.45;;;22.50;;
60076;SDS011;45950;45.208;20.374;2023-03-01T19:27:23;37.88;;;24.73;;
60076;SDS011;45950;45.208;20.374;2023-03-01T19:29:50;59.42;;;38.55;;
60076;SDS011;45950;45.208;20.374;2023-03-01T19:32:17;64.15;;;42.50;;
60076;SDS011;45950;45.208;20.374;2023-03-01T19:34:44;59.67;;;38.30;;
60076;SDS011;45950;45.208;20.374;2023-03-01T19:37:11;63.10;;;36.72;;
60076;SDS011;45950;45.208;20.374;2023-03-01T19:39:40;60.40;;;27.83;;
60076;SDS011;45950;45.208;20.374;2023-03-01T19:42:12;54.90;;;33.03;;
60076;SDS011;45950;45.208;20.374;2023-03-01T19:44:54;48.80;;;29.73;;
60076;SDS011;45950;45.208;20.374;2023-03-01T19:47:21;38.50;;;22.77;;
60076;SDS011;45950;45.208;20.374;2023-03-01T19:49:49;30.48;;;19.38;;
60076;SDS011;45950;45.208;20.374;2023-03-01T20:09:25;29.37;;;16.83;;
60076;SDS011;45950;45.208;20.374;2023-03-01T20:20:16;47.92;;;23.15;;
60076;SDS011;45950;45.208;20.374;2023-03-01T20:22:43;39.83;;;21.58;;
60076;SDS011;45950;45.208;20.374;2023-03-01T20:25:27;29.98;;;18.70;;
60076;SDS011;45950;45.208;20.374;2023-03-01T20:28:02;40.10;;;24.90;;
60076;SDS011;45950;45.208;20.374;2023-03-01T20:33:49;41.40;;;26.00;;
60076;SDS011;45950;45.208;20.374;2023-03-01T20:36:19;42.40;;;23.48;;
60076;SDS011;45950;45.208;20.374;2023-03-01T20:44:04;48.65;;;24.85;;
60076;SDS011;45950;45.208;20.374;2023-03-01T20:49:35;39.90;;;22.52;;
60076;SDS011;45950;45.208;20.374;2023-03-01T20:52:17;31.88;;;18.75;;
60076;SDS011;45950;45.208;20.374;2023-03-01T20:54:58;37.17;;;22.52;;
60076;SDS011;45950;45.208;20.374;2023-03-01T21:13:54;49.92;;;28.20;;
60076;SDS011;45950;45.208;20.374;2023-03-01T21:16:46;45.75;;;27.65;;
60076;SDS011;45950;45.208;20.374;2023-03-01T21:24:59;38.53;;;21.33;;
60076;SDS011;45950;45.208;20.374;2023-03-01T21:53:31;40.20;;;25.05;;
60076;SDS011;45950;45.208;20.374;2023-03-01T22:10:09;41.42;;;22.73;;
60076;SDS011;45950;45.208;20.374;2023-03-01T22:12:47;34.40;;;20.98;;
60076;SDS011;45950;45.208;20.374;2023-03-01T22:15:16;38.60;;;21.77;;
60076;SDS011;45950;45.208;20.374;2023-03-01T22:20:25;42.88;;;24.08;;
60076;SDS011;45950;45.208;20.374;2023-03-01T22:23:06;46.13;;;26.52;;
60076;SDS011;45950;45.208;20.374;2023-03-01T22:42:13;38.17;;;22.38;;
60076;SDS011;45950;45.208;20.374;2023-03-01T22:44:41;37.35;;;21.20;;
60076;SDS011;45950;45.208;20.374;2023-03-01T22:50:23;44.22;;;27.77;;
60076;SDS011;45950;45.208;20.374;2023-03-01T22:53:05;42.58;;;28.00;;
60076;SDS011;45950;45.208;20.374;2023-03-01T23:31:04;43.25;;;22.23;;
60076;SDS011;45950;45.208;20.374;2023-03-01T23:33:33;41.65;;;23.63;;
60076;SDS011;45950;45.208;20.374;2023-03-01T23:36:14;38.58;;;22.30;;
60076;SDS011;45950;45.208;20.374;2023-03-01T23:38:57;37.55;;;20.95;;
60076;SDS011;45950;45.208;20.374;2023-03-01T23:41:29;38.67;;;21.33;;
60076;SDS011;45950;45.208;20.374;2023-03-01T23:44:11;47.78;;;27.13;;
60076;SDS011;45950;45.208;20.374;2023-03-01T23:55:03;39.03;;;20.25;;
60076;SDS011;45950;45.208;20.374;2023-03-01T23:58:01;34.22;;;19.73;;
